Algonquin Island, Ontario

10:20 PM EDT on June 23, 2017 (GMT -0400)
Marina Quay West | | Change Station

Elev 249 ft 43.64 °N, 79.39 °W | Updated 13 seconds ago

Overcast
Overcast
72.8 °F
Feels Like 75 °F
N
2.0
Wind Variable Wind from WSW

Today
High -- | Low -- °F
--% Chance of Precip.
Yesterday
High -- | Low -- °F
Precip. -- in
Pressure 29.57 in
Visibility 9.0 miles
Clouds Scattered Clouds 7500 ft
Overcast 8800 ft
Heat Index 75 °F
Dew Point 62 °F
Humidity 70%
Rainfall 1.81 in
Snow Depth Not available.
5:36 AM 9:02 PM
Waning Crescent, 0% visible
METAR CYTZ 240200Z AUTO 28008KT 9SM SCT075 OVC088 23/18 A2957 RMK SLP013 DENSITY ALT 1600FT
Pressure 29.57 in
Visibility 9.0 miles
Clouds Scattered Clouds 7500 ft
Overcast 8800 ft
Heat Index 75 °F
Dew Point 62 °F
Humidity 70%
Rainfall 1.81 in
Snow Depth Not available.
5:36 AM 9:02 PM
Waning Crescent, 0% visible
METAR CYTZ 240200Z AUTO 28008KT 9SM SCT075 OVC088 23/18 A2957 RMK SLP013 DENSITY ALT 1600FT

Get Severe Weather Alerts

Thanks for signing up!

Be on the lookout for a verification email in your inbox.

You'll start receiving the daily forecast at 6 AM.

×

10-Day Weather Forecast

Almanac

Astronomy

Jun. 23, 2017 Rise Set
Actual Time
Civil Twilight
Nautical Twilight
Astronomical Twilight
Moon
Length of Visible Light
Length of Day
Tomorrow will be .
, % of the Moon is Illuminated

Today's Extremes

Country Highs Country Lows

Community

WunderPhotos

Category 6

Welcome to Category 6. This is the collective home for Weather Underground's featured writeups by Dr. Jeff Masters (right), Bob Henson (left), Chris Burt, and other regular contributors.

Nearby

Air Quality

  Air Quality AQ Index Pollutant
Not available.

Snow Depth

Station Depth Elevation

Earthquake Activity

City Distance Mag. Time & Date
Minimum magnitude displayed is 2.5.

Coastal Water Temperatures

Place Temperature

Stations

Nearby Weather Stations

Station Location Temp. Windchill Dew Point Humidity Wind Precip. Elev Updated Type
                   

Watches & Warnings

There are currently no watches in effect.